sensor_id;sensor_type;location;lat;lon;timestamp;temperature;humidity
21807;DHT22;11065;50.786;7.840;2024-03-23T00:52:47;13.40;50.00
21807;DHT22;11065;50.786;7.840;2024-03-23T00:55:14;13.40;50.00
21807;DHT22;11065;50.786;7.840;2024-03-23T00:57:40;13.40;50.10
21807;DHT22;11065;50.786;7.840;2024-03-23T01:00:07;13.40;50.10
21807;DHT22;11065;50.786;7.840;2024-03-23T01:02:36;13.40;50.20
21807;DHT22;11065;50.786;7.840;2024-03-23T01:05:04;13.40;50.30
21807;DHT22;11065;50.786;7.840;2024-03-23T01:07:30;13.40;50.40
21807;DHT22;11065;50.786;7.840;2024-03-23T01:09:58;13.40;50.30
21807;DHT22;11065;50.786;7.840;2024-03-23T01:12:24;13.40;50.50
21807;DHT22;11065;50.786;7.840;2024-03-23T01:14:51;13.50;50.50
21807;DHT22;11065;50.786;7.840;2024-03-23T01:17:17;13.50;50.40
21807;DHT22;11065;50.786;7.840;2024-03-23T01:19:44;13.50;50.80
21807;DHT22;11065;50.786;7.840;2024-03-23T01:22:10;13.50;50.60
21807;DHT22;11065;50.786;7.840;2024-03-23T01:24:38;13.40;50.20
21807;DHT22;11065;50.786;7.840;2024-03-23T01:27:05;13.40;50.10
21807;DHT22;11065;50.786;7.840;2024-03-23T01:29:32;13.40;50.00
21807;DHT22;11065;50.786;7.840;2024-03-23T01:31:59;13.30;49.90
21807;DHT22;11065;50.786;7.840;2024-03-23T01:34:26;13.30;49.90
21807;DHT22;11065;50.786;7.840;2024-03-23T01:36:52;13.20;49.70
21807;DHT22;11065;50.786;7.840;2024-03-23T01:39:19;13.20;49.80
21807;DHT22;11065;50.786;7.840;2024-03-23T01:41:45;13.10;49.70
21807;DHT22;11065;50.786;7.840;2024-03-23T01:44:13;13.10;49.70
21807;DHT22;11065;50.786;7.840;2024-03-23T01:46:41;13.10;50.50
21807;DHT22;11065;50.786;7.840;2024-03-23T01:49:08;13.00;49.90
21807;DHT22;11065;50.786;7.840;2024-03-23T01:51:35;13.00;49.90
21807;DHT22;11065;50.786;7.840;2024-03-23T01:54:03;12.90;50.10
21807;DHT22;11065;50.786;7.840;2024-03-23T01:56:29;12.90;50.70
21807;DHT22;11065;50.786;7.840;2024-03-23T01:58:58;12.80;49.90
21807;DHT22;11065;50.786;7.840;2024-03-23T02:01:26;12.80;49.80
21807;DHT22;11065;50.786;7.840;2024-03-23T02:03:53;12.70;49.80
21807;DHT22;11065;50.786;7.840;2024-03-23T02:06:19;12.70;49.80
21807;DHT22;11065;50.786;7.840;2024-03-23T02:08:46;12.60;49.60
21807;DHT22;11065;50.786;7.840;2024-03-23T02:11:12;12.50;49.70
21807;DHT22;11065;50.786;7.840;2024-03-23T02:13:39;12.50;49.60
21807;DHT22;11065;50.786;7.840;2024-03-23T02:16:06;12.40;49.70
21807;DHT22;11065;50.786;7.840;2024-03-23T02:18:34;12.40;49.90
21807;DHT22;11065;50.786;7.840;2024-03-23T02:21:00;12.30;49.70
21807;DHT22;11065;50.786;7.840;2024-03-23T02:23:29;12.30;49.60
21807;DHT22;11065;50.786;7.840;2024-03-23T02:25:55;12.30;49.90
21807;DHT22;11065;50.786;7.840;2024-03-23T02:28:22;12.20;49.70
21807;DHT22;11065;50.786;7.840;2024-03-23T02:30:48;12.20;49.80
21807;DHT22;11065;50.786;7.840;2024-03-23T02:33:15;12.20;50.00
21807;DHT22;11065;50.786;7.840;2024-03-23T02:35:42;12.20;50.00
21807;DHT22;11065;50.786;7.840;2024-03-23T02:38:09;12.20;50.00
21807;DHT22;11065;50.786;7.840;2024-03-23T02:40:37;12.10;50.00
21807;DHT22;11065;50.786;7.840;2024-03-23T02:43:04;12.10;49.90
21807;DHT22;11065;50.786;7.840;2024-03-23T02:45:30;12.10;49.90
21807;DHT22;11065;50.786;7.840;2024-03-23T02:47:58;12.00;49.90
21807;DHT22;11065;50.786;7.840;2024-03-23T02:50:24;12.00;49.90
21807;DHT22;11065;50.786;7.840;2024-03-23T02:52:51;12.00;49.90
21807;DHT22;11065;50.786;7.840;2024-03-23T02:55:17;12.00;50.10
21807;DHT22;11065;50.786;7.840;2024-03-23T02:57:45;12.00;50.10
21807;DHT22;11065;50.786;7.840;2024-03-23T03:00:12;12.00;50.20
21807;DHT22;11065;50.786;7.840;2024-03-23T03:02:39;12.00;50.20
21807;DHT22;11065;50.786;7.840;2024-03-23T03:05:06;12.00;50.20
21807;DHT22;11065;50.786;7.840;2024-03-23T03:07:34;11.90;50.20
21807;DHT22;11065;50.786;7.840;2024-03-23T03:10:00;11.90;50.20
21807;DHT22;11065;50.786;7.840;2024-03-23T03:12:27;11.90;50.20
21807;DHT22;11065;50.786;7.840;2024-03-23T03:14:55;11.90;50.20
21807;DHT22;11065;50.786;7.840;2024-03-23T03:17:22;11.90;50.30
21807;DHT22;11065;50.786;7.840;2024-03-23T03:19:49;11.90;50.30
21807;DHT22;11065;50.786;7.840;2024-03-23T03:22:21;11.90;50.30
21807;DHT22;11065;50.786;7.840;2024-03-23T03:24:47;11.80;50.20
21807;DHT22;11065;50.786;7.840;2024-03-23T03:27:14;11.80;50.30
21807;DHT22;11065;50.786;7.840;2024-03-23T03:29:40;11.80;50.30
21807;DHT22;11065;50.786;7.840;2024-03-23T03:32:09;11.80;50.40
21807;DHT22;11065;50.786;7.840;2024-03-23T03:34:35;11.80;50.40
21807;DHT22;11065;50.786;7.840;2024-03-23T03:37:02;11.80;50.50
21807;DHT22;11065;50.786;7.840;2024-03-23T03:39:28;11.70;50.60
21807;DHT22;11065;50.786;7.840;2024-03-23T03:41:55;11.70;50.60
21807;DHT22;11065;50.786;7.840;2024-03-23T03:44:21;11.70;50.60
21807;DHT22;11065;50.786;7.840;2024-03-23T03:46:48;11.70;50.60
21807;DHT22;11065;50.786;7.840;2024-03-23T03:49:15;11.60;50.60
21807;DHT22;11065;50.786;7.840;2024-03-23T03:51:42;11.60;50.70
21807;DHT22;11065;50.786;7.840;2024-03-23T03:54:08;11.50;50.60
21807;DHT22;11065;50.786;7.840;2024-03-23T03:56:35;11.50;50.60
21807;DHT22;11065;50.786;7.840;2024-03-23T03:59:01;11.50;50.60
21807;DHT22;11065;50.786;7.840;2024-03-23T04:01:28;11.40;50.40
21807;DHT22;11065;50.786;7.840;2024-03-23T04:03:54;11.40;50.70
21807;DHT22;11065;50.786;7.840;2024-03-23T04:06:22;11.30;50.70
21807;DHT22;11065;50.786;7.840;2024-03-23T04:08:49;11.20;50.40
21807;DHT22;11065;50.786;7.840;2024-03-23T04:11:16;11.20;50.40
21807;DHT22;11065;50.786;7.840;2024-03-23T04:13:43;11.10;50.40
21807;DHT22;11065;50.786;7.840;2024-03-23T04:16:10;11.10;50.60
21807;DHT22;11065;50.786;7.840;2024-03-23T04:18:36;11.10;50.50
21807;DHT22;11065;50.786;7.840;2024-03-23T04:21:03;11.00;50.60
21807;DHT22;11065;50.786;7.840;2024-03-23T04:23:30;10.90;50.60
21807;DHT22;11065;50.786;7.840;2024-03-23T04:26:03;10.90;50.50
21807;DHT22;11065;50.786;7.840;2024-03-23T04:28:30;10.80;50.60
21807;DHT22;11065;50.786;7.840;2024-03-23T04:30:56;10.80;50.60
21807;DHT22;11065;50.786;7.840;2024-03-23T04:33:22;10.80;50.60
21807;DHT22;11065;50.786;7.840;2024-03-23T04:35:50;10.80;50.60
21807;DHT22;11065;50.786;7.840;2024-03-23T04:38:16;10.70;50.40
21807;DHT22;11065;50.786;7.840;2024-03-23T04:40:45;10.60;50.30
21807;DHT22;11065;50.786;7.840;2024-03-23T04:43:20;10.60;50.30
21807;DHT22;11065;50.786;7.840;2024-03-23T04:45:47;10.60;50.30
21807;DHT22;11065;50.786;7.840;2024-03-23T04:48:14;10.50;50.30
21807;DHT22;11065;50.786;7.840;2024-03-23T04:50:41;10.50;50.30
21807;DHT22;11065;50.786;7.840;2024-03-23T04:53:08;10.50;50.50
21807;DHT22;11065;50.786;7.840;2024-03-23T04:55:35;10.40;50.40
21807;DHT22;11065;50.786;7.840;2024-03-23T04:58:04;10.40;50.50
21807;DHT22;11065;50.786;7.840;2024-03-23T05:00:30;10.30;50.20
21807;DHT22;11065;50.786;7.840;2024-03-23T05:02:57;10.30;50.10
21807;DHT22;11065;50.786;7.840;2024-03-23T05:05:23;10.20;50.00
21807;DHT22;11065;50.786;7.840;2024-03-23T05:07:50;10.20;50.00
21807;DHT22;11065;50.786;7.840;2024-03-23T05:10:16;10.10;50.10
21807;DHT22;11065;50.786;7.840;2024-03-23T05:12:44;10.10;49.80
21807;DHT22;11065;50.786;7.840;2024-03-23T05:15:12;10.00;49.80
21807;DHT22;11065;50.786;7.840;2024-03-23T05:17:39;10.00;49.90
21807;DHT22;11065;50.786;7.840;2024-03-23T05:20:06;10.00;49.90
21807;DHT22;11065;50.786;7.840;2024-03-23T05:22:35;9.90;50.10
21807;DHT22;11065;50.786;7.840;2024-03-23T05:25:01;9.90;50.20
21807;DHT22;11065;50.786;7.840;2024-03-23T05:27:31;9.90;50.30
21807;DHT22;11065;50.786;7.840;2024-03-23T05:29:57;9.90;50.30
21807;DHT22;11065;50.786;7.840;2024-03-23T05:32:25;9.90;50.30
21807;DHT22;11065;50.786;7.840;2024-03-23T05:34:51;9.90;50.30
21807;DHT22;11065;50.786;7.840;2024-03-23T05:37:21;9.90;50.20
21807;DHT22;11065;50.786;7.840;2024-03-23T05:39:47;9.80;50.20
21807;DHT22;11065;50.786;7.840;2024-03-23T05:42:15;9.80;50.30
21807;DHT22;11065;50.786;7.840;2024-03-23T05:44:43;9.80;50.20
21807;DHT22;11065;50.786;7.840;2024-03-23T05:47:11;9.80;50.20
21807;DHT22;11065;50.786;7.840;2024-03-23T05:49:40;9.80;50.20
21807;DHT22;11065;50.786;7.840;2024-03-23T05:52:08;9.80;50.20
21807;DHT22;11065;50.786;7.840;2024-03-23T05:54:34;9.70;49.90
21807;DHT22;11065;50.786;7.840;2024-03-23T05:57:01;9.70;50.10
21807;DHT22;11065;50.786;7.840;2024-03-23T05:59:29;9.70;50.30
21807;DHT22;11065;50.786;7.840;2024-03-23T06:01:55;9.70;50.30
21807;DHT22;11065;50.786;7.840;2024-03-23T06:04:22;9.70;50.20
21807;DHT22;11065;50.786;7.840;2024-03-23T06:06:51;9.70;50.30
21807;DHT22;11065;50.786;7.840;2024-03-23T06:09:19;9.60;50.40
21807;DHT22;11065;50.786;7.840;2024-03-23T06:11:45;9.60;50.20
21807;DHT22;11065;50.786;7.840;2024-03-23T06:14:12;9.60;50.40
21807;DHT22;11065;50.786;7.840;2024-03-23T06:16:39;9.60;50.50
21807;DHT22;11065;50.786;7.840;2024-03-23T06:19:06;9.60;50.50
21807;DHT22;11065;50.786;7.840;2024-03-23T06:21:33;9.60;50.50
21807;DHT22;11065;50.786;7.840;2024-03-23T06:24:00;9.60;50.60
21807;DHT22;11065;50.786;7.840;2024-03-23T06:26:27;9.60;50.50
21807;DHT22;11065;50.786;7.840;2024-03-23T06:28:53;9.60;50.40
21807;DHT22;11065;50.786;7.840;2024-03-23T06:31:21;9.60;50.40
21807;DHT22;11065;50.786;7.840;2024-03-23T06:33:48;9.60;50.50
21807;DHT22;11065;50.786;7.840;2024-03-23T06:36:15;9.60;50.60
21807;DHT22;11065;50.786;7.840;2024-03-23T06:38:41;9.60;50.60
21807;DHT22;11065;50.786;7.840;2024-03-23T06:41:09;9.50;50.60
21807;DHT22;11065;50.786;7.840;2024-03-23T06:43:36;9.60;50.70
21807;DHT22;11065;50.786;7.840;2024-03-23T06:46:03;9.60;50.70
21807;DHT22;11065;50.786;7.840;2024-03-23T06:48:30;9.60;50.80
21807;DHT22;11065;50.786;7.840;2024-03-23T06:50:57;9.60;50.90
21807;DHT22;11065;50.786;7.840;2024-03-23T06:53:23;9.60;50.90
21807;DHT22;11065;50.786;7.840;2024-03-23T06:55:51;9.60;50.90
21807;DHT22;11065;50.786;7.840;2024-03-23T06:58:20;9.60;50.80
21807;DHT22;11065;50.786;7.840;2024-03-23T07:00:47;9.60;50.90
21807;DHT22;11065;50.786;7.840;2024-03-23T07:03:13;9.70;50.80
21807;DHT22;11065;50.786;7.840;2024-03-23T07:05:40;9.60;50.80
21807;DHT22;11065;50.786;7.840;2024-03-23T07:08:06;9.70;50.80
21807;DHT22;11065;50.786;7.840;2024-03-23T07:10:34;9.70;50.90
21807;DHT22;11065;50.786;7.840;2024-03-23T07:13:00;9.70;50.90
21807;DHT22;11065;50.786;7.840;2024-03-23T07:15:28;9.70;51.30
21807;DHT22;11065;50.786;7.840;2024-03-23T07:17:54;9.70;51.00
21807;DHT22;11065;50.786;7.840;2024-03-23T07:20:21;9.70;51.00
21807;DHT22;11065;50.786;7.840;2024-03-23T07:22:47;9.70;51.00
21807;DHT22;11065;50.786;7.840;2024-03-23T07:25:15;9.70;51.20
21807;DHT22;11065;50.786;7.840;2024-03-23T07:27:41;9.80;51.30
21807;DHT22;11065;50.786;7.840;2024-03-23T07:30:08;9.90;51.40
21807;DHT22;11065;50.786;7.840;2024-03-23T07:32:36;9.90;51.50
21807;DHT22;11065;50.786;7.840;2024-03-23T07:35:03;10.00;51.70
21807;DHT22;11065;50.786;7.840;2024-03-23T07:37:30;10.00;51.30
21807;DHT22;11065;50.786;7.840;2024-03-23T07:39:57;10.00;51.40
21807;DHT22;11065;50.786;7.840;2024-03-23T07:42:23;10.00;51.40
21807;DHT22;11065;50.786;7.840;2024-03-23T07:44:52;10.00;51.20
21807;DHT22;11065;50.786;7.840;2024-03-23T07:47:19;10.00;51.10
21807;DHT22;11065;50.786;7.840;2024-03-23T07:49:48;10.00;51.30
21807;DHT22;11065;50.786;7.840;2024-03-23T07:52:16;10.10;51.30
21807;DHT22;11065;50.786;7.840;2024-03-23T07:54:43;10.10;51.20
21807;DHT22;11065;50.786;7.840;2024-03-23T07:57:09;10.10;51.10
21807;DHT22;11065;50.786;7.840;2024-03-23T07:59:37;10.20;51.00
21807;DHT22;11065;50.786;7.840;2024-03-23T08:02:03;10.10;50.90
21807;DHT22;11065;50.786;7.840;2024-03-23T08:04:30;10.20;51.00
21807;DHT22;11065;50.786;7.840;2024-03-23T08:06:57;10.20;51.10
21807;DHT22;11065;50.786;7.840;2024-03-23T08:09:24;10.20;51.10
21807;DHT22;11065;50.786;7.840;2024-03-23T08:11:50;10.20;51.20
21807;DHT22;11065;50.786;7.840;2024-03-23T08:14:17;10.20;51.30
21807;DHT22;11065;50.786;7.840;2024-03-23T08:16:43;10.30;51.30
21807;DHT22;11065;50.786;7.840;2024-03-23T08:19:14;10.30;51.30
21807;DHT22;11065;50.786;7.840;2024-03-23T08:21:40;10.40;51.30
21807;DHT22;11065;50.786;7.840;2024-03-23T08:24:09;10.50;51.40
21807;DHT22;11065;50.786;7.840;2024-03-23T08:26:35;10.50;51.20
21807;DHT22;11065;50.786;7.840;2024-03-23T08:29:03;10.60;51.10
21807;DHT22;11065;50.786;7.840;2024-03-23T08:31:29;10.60;51.10
21807;DHT22;11065;50.786;7.840;2024-03-23T08:33:57;10.70;51.40
21807;DHT22;11065;50.786;7.840;2024-03-23T08:36:23;10.80;51.40
21807;DHT22;11065;50.786;7.840;2024-03-23T08:38:50;10.90;51.40
21807;DHT22;11065;50.786;7.840;2024-03-23T08:41:20;11.00;51.60
21807;DHT22;11065;50.786;7.840;2024-03-23T08:43:47;11.20;51.70
21807;DHT22;11065;50.786;7.840;2024-03-23T08:46:15;11.40;51.50
21807;DHT22;11065;50.786;7.840;2024-03-23T08:48:44;11.60;51.30
21807;DHT22;11065;50.786;7.840;2024-03-23T08:51:12;11.70;51.00
21807;DHT22;11065;50.786;7.840;2024-03-23T08:53:39;11.80;50.80
21807;DHT22;11065;50.786;7.840;2024-03-23T08:56:07;11.90;51.00
21807;DHT22;11065;50.786;7.840;2024-03-23T08:58:36;12.10;51.10
21807;DHT22;11065;50.786;7.840;2024-03-23T09:01:04;12.30;51.20
21807;DHT22;11065;50.786;7.840;2024-03-23T09:03:31;12.50;51.00
21807;DHT22;11065;50.786;7.840;2024-03-23T09:05:57;12.70;50.90
21807;DHT22;11065;50.786;7.840;2024-03-23T09:08:25;12.90;51.00
21807;DHT22;11065;50.786;7.840;2024-03-23T09:10:52;13.10;50.60
21807;DHT22;11065;50.786;7.840;2024-03-23T09:13:19;13.30;50.80
21807;DHT22;11065;50.786;7.840;2024-03-23T09:15:48;13.60;50.00
21807;DHT22;11065;50.786;7.840;2024-03-23T09:18:16;13.80;49.90
21807;DHT22;11065;50.786;7.840;2024-03-23T09:20:42;14.00;49.50
21807;DHT22;11065;50.786;7.840;2024-03-23T09:23:09;14.00;48.80
21807;DHT22;11065;50.786;7.840;2024-03-23T09:25:39;14.00;48.00
21807;DHT22;11065;50.786;7.840;2024-03-23T09:28:06;14.10;49.30
21807;DHT22;11065;50.786;7.840;2024-03-23T09:30:34;14.40;49.20
21807;DHT22;11065;50.786;7.840;2024-03-23T09:33:03;14.60;49.70
21807;DHT22;11065;50.786;7.840;2024-03-23T09:35:30;15.00;49.80
21807;DHT22;11065;50.786;7.840;2024-03-23T09:37:57;15.30;47.90
21807;DHT22;11065;50.786;7.840;2024-03-23T09:40:23;15.40;47.80
21807;DHT22;11065;50.786;7.840;2024-03-23T09:42:51;15.40;46.20
21807;DHT22;11065;50.786;7.840;2024-03-23T09:45:21;15.40;46.90
21807;DHT22;11065;50.786;7.840;2024-03-23T09:47:48;15.30;44.70
21807;DHT22;11065;50.786;7.840;2024-03-23T09:50:17;15.30;46.30
21807;DHT22;11065;50.786;7.840;2024-03-23T09:52:46;15.30;44.70
21807;DHT22;11065;50.786;7.840;2024-03-23T09:55:12;15.30;45.80
21807;DHT22;11065;50.786;7.840;2024-03-23T09:57:40;15.40;47.20
21807;DHT22;11065;50.786;7.840;2024-03-23T10:00:07;15.70;47.80
21807;DHT22;11065;50.786;7.840;2024-03-23T10:02:35;16.10;47.00
21807;DHT22;11065;50.786;7.840;2024-03-23T10:05:01;16.50;47.40
21807;DHT22;11065;50.786;7.840;2024-03-23T10:07:30;17.10;48.40
21807;DHT22;11065;50.786;7.840;2024-03-23T10:09:56;17.80;48.10
21807;DHT22;11065;50.786;7.840;2024-03-23T10:12:24;18.40;47.30
21807;DHT22;11065;50.786;7.840;2024-03-23T10:14:50;19.00;44.50
21807;DHT22;11065;50.786;7.840;2024-03-23T10:17:18;19.30;44.90
21807;DHT22;11065;50.786;7.840;2024-03-23T10:19:44;19.40;42.10
21807;DHT22;11065;50.786;7.840;2024-03-23T10:22:14;19.20;42.50
21807;DHT22;11065;50.786;7.840;2024-03-23T10:24:42;18.80;41.70
21807;DHT22;11065;50.786;7.840;2024-03-23T10:27:09;18.30;40.90
21807;DHT22;11065;50.786;7.840;2024-03-23T10:29:35;17.70;41.40
21807;DHT22;11065;50.786;7.840;2024-03-23T10:32:09;17.40;42.80
21807;DHT22;11065;50.786;7.840;2024-03-23T10:34:36;17.40;44.30
21807;DHT22;11065;50.786;7.840;2024-03-23T10:37:04;17.80;46.00
21807;DHT22;11065;50.786;7.840;2024-03-23T10:39:34;18.30;46.40
21807;DHT22;11065;50.786;7.840;2024-03-23T10:42:07;19.10;46.00
21807;DHT22;11065;50.786;7.840;2024-03-23T10:44:34;19.80;45.80
21807;DHT22;11065;50.786;7.840;2024-03-23T10:47:02;20.30;44.20
21807;DHT22;11065;50.786;7.840;2024-03-23T10:49:29;20.30;42.10
21807;DHT22;11065;50.786;7.840;2024-03-23T10:52:00;20.10;39.80
21807;DHT22;11065;50.786;7.840;2024-03-23T10:54:27;19.60;38.50
21807;DHT22;11065;50.786;7.840;2024-03-23T10:57:04;19.00;39.30
21807;DHT22;11065;50.786;7.840;2024-03-23T10:59:33;18.30;38.30
21807;DHT22;11065;50.786;7.840;2024-03-23T11:02:02;18.10;40.90
21807;DHT22;11065;50.786;7.840;2024-03-23T11:04:30;18.10;42.50
21807;DHT22;11065;50.786;7.840;2024-03-23T11:06:58;18.50;43.50
21807;DHT22;11065;50.786;7.840;2024-03-23T11:09:40;19.20;44.90
21807;DHT22;11065;50.786;7.840;2024-03-23T11:12:29;20.00;44.50
21807;DHT22;11065;50.786;7.840;2024-03-23T11:15:04;20.80;43.70
21807;DHT22;11065;50.786;7.840;2024-03-23T11:17:30;21.30;41.70
21807;DHT22;11065;50.786;7.840;2024-03-23T11:19:58;21.50;41.30
21807;DHT22;11065;50.786;7.840;2024-03-23T11:22:44;21.50;40.50
21807;DHT22;11065;50.786;7.840;2024-03-23T11:25:17;21.30;37.80
21807;DHT22;11065;50.786;7.840;2024-03-23T11:27:44;20.90;38.40
21807;DHT22;11065;50.786;7.840;2024-03-23T11:30:14;20.20;36.90
21807;DHT22;11065;50.786;7.840;2024-03-23T11:32:41;19.50;37.90
21807;DHT22;11065;50.786;7.840;2024-03-23T11:35:09;18.70;37.10
21807;DHT22;11065;50.786;7.840;2024-03-23T11:37:36;18.00;37.10
21807;DHT22;11065;50.786;7.840;2024-03-23T11:40:20;17.30;37.60
21807;DHT22;11065;50.786;7.840;2024-03-23T11:42:46;16.60;38.40
21807;DHT22;11065;50.786;7.840;2024-03-23T11:45:15;16.00;38.50
21807;DHT22;11065;50.786;7.840;2024-03-23T11:47:44;15.60;39.00
21807;DHT22;11065;50.786;7.840;2024-03-23T11:50:19;15.10;39.10
21807;DHT22;11065;50.786;7.840;2024-03-23T11:52:45;14.80;39.70
21807;DHT22;11065;50.786;7.840;2024-03-23T11:55:12;14.60;40.40
21807;DHT22;11065;50.786;7.840;2024-03-23T11:57:38;14.50;41.00
21807;DHT22;11065;50.786;7.840;2024-03-23T12:03:01;14.40;41.30
21807;DHT22;11065;50.786;7.840;2024-03-23T12:05:29;14.90;43.10
21807;DHT22;11065;50.786;7.840;2024-03-23T12:07:55;15.30;44.10
21807;DHT22;11065;50.786;7.840;2024-03-23T12:10:22;15.90;44.70
21807;DHT22;11065;50.786;7.840;2024-03-23T12:13:00;16.60;44.90
21807;DHT22;11065;50.786;7.840;2024-03-23T12:15:27;17.40;43.70
21807;DHT22;11065;50.786;7.840;2024-03-23T12:18:07;18.00;41.60
21807;DHT22;11065;50.786;7.840;2024-03-23T12:20:34;18.40;41.60
21807;DHT22;11065;50.786;7.840;2024-03-23T12:23:08;18.50;41.10
21807;DHT22;11065;50.786;7.840;2024-03-23T12:25:38;18.50;39.70
21807;DHT22;11065;50.786;7.840;2024-03-23T12:28:04;18.30;39.50
21807;DHT22;11065;50.786;7.840;2024-03-23T12:30:38;18.00;39.20
21807;DHT22;11065;50.786;7.840;2024-03-23T12:33:05;17.60;38.70
21807;DHT22;11065;50.786;7.840;2024-03-23T12:35:34;17.20;38.80
21807;DHT22;11065;50.786;7.840;2024-03-23T12:38:00;16.80;38.80
21807;DHT22;11065;50.786;7.840;2024-03-23T12:40:27;16.40;38.00
21807;DHT22;11065;50.786;7.840;2024-03-23T12:42:53;16.00;38.80
21807;DHT22;11065;50.786;7.840;2024-03-23T12:45:22;15.70;39.30
21807;DHT22;11065;50.786;7.840;2024-03-23T12:47:48;15.30;40.00
21807;DHT22;11065;50.786;7.840;2024-03-23T12:50:15;15.10;40.40
21807;DHT22;11065;50.786;7.840;2024-03-23T12:52:42;14.90;40.50
21807;DHT22;11065;50.786;7.840;2024-03-23T12:55:09;14.70;40.80
21807;DHT22;11065;50.786;7.840;2024-03-23T12:57:35;14.60;41.20
21807;DHT22;11065;50.786;7.840;2024-03-23T13:00:03;14.50;41.40
21807;DHT22;11065;50.786;7.840;2024-03-23T13:02:30;14.50;41.60
21807;DHT22;11065;50.786;7.840;2024-03-23T13:04:57;14.30;41.50
21807;DHT22;11065;50.786;7.840;2024-03-23T13:07:24;14.20;41.50
21807;DHT22;11065;50.786;7.840;2024-03-23T13:09:53;14.10;41.50
21807;DHT22;11065;50.786;7.840;2024-03-23T13:12:19;14.00;41.70
21807;DHT22;11065;50.786;7.840;2024-03-23T13:14:47;13.90;42.00
21807;DHT22;11065;50.786;7.840;2024-03-23T13:17:13;13.80;42.10
21807;DHT22;11065;50.786;7.840;2024-03-23T13:19:40;13.80;42.20
21807;DHT22;11065;50.786;7.840;2024-03-23T13:22:07;13.80;42.10
21807;DHT22;11065;50.786;7.840;2024-03-23T13:24:37;13.80;42.10
21807;DHT22;11065;50.786;7.840;2024-03-23T13:27:05;13.70;42.00
21807;DHT22;11065;50.786;7.840;2024-03-23T13:29:33;13.60;42.00
21807;DHT22;11065;50.786;7.840;2024-03-23T13:32:00;13.40;41.90
21807;DHT22;11065;50.786;7.840;2024-03-23T13:34:27;13.30;41.90
21807;DHT22;11065;50.786;7.840;2024-03-23T13:36:55;13.10;42.10
21807;DHT22;11065;50.786;7.840;2024-03-23T13:39:24;12.80;42.00
21807;DHT22;11065;50.786;7.840;2024-03-23T13:41:50;12.60;42.00
21807;DHT22;11065;50.786;7.840;2024-03-23T13:44:18;12.40;42.10
21807;DHT22;11065;50.786;7.840;2024-03-23T13:46:44;12.20;42.20
21807;DHT22;11065;50.786;7.840;2024-03-23T13:49:25;12.00;42.50
21807;DHT22;11065;50.786;7.840;2024-03-23T13:51:52;11.90;43.00
21807;DHT22;11065;50.786;7.840;2024-03-23T13:54:20;11.80;43.30
21807;DHT22;11065;50.786;7.840;2024-03-23T13:56:48;11.80;43.40
21807;DHT22;11065;50.786;7.840;2024-03-23T13:59:15;11.80;43.70
21807;DHT22;11065;50.786;7.840;2024-03-23T14:01:42;11.80;44.00
21807;DHT22;11065;50.786;7.840;2024-03-23T14:04:10;12.00;44.70
21807;DHT22;11065;50.786;7.840;2024-03-23T14:06:36;12.30;45.60
21807;DHT22;11065;50.786;7.840;2024-03-23T14:09:04;12.60;45.60
21807;DHT22;11065;50.786;7.840;2024-03-23T14:11:30;13.10;46.00
21807;DHT22;11065;50.786;7.840;2024-03-23T14:13:57;13.50;45.90
21807;DHT22;11065;50.786;7.840;2024-03-23T14:16:23;13.90;45.90
21807;DHT22;11065;50.786;7.840;2024-03-23T14:18:52;14.30;45.60
21807;DHT22;11065;50.786;7.840;2024-03-23T14:21:18;14.70;45.10
21807;DHT22;11065;50.786;7.840;2024-03-23T14:23:45;14.80;44.00
21807;DHT22;11065;50.786;7.840;2024-03-23T14:26:11;14.90;43.70
21807;DHT22;11065;50.786;7.840;2024-03-23T14:28:38;15.00;43.90
21807;DHT22;11065;50.786;7.840;2024-03-23T14:31:05;15.10;44.00
21807;DHT22;11065;50.786;7.840;2024-03-23T14:33:36;15.20;44.30
21807;DHT22;11065;50.786;7.840;2024-03-23T14:36:05;15.40;44.30
21807;DHT22;11065;50.786;7.840;2024-03-23T14:38:32;15.60;44.20
21807;DHT22;11065;50.786;7.840;2024-03-23T14:40:59;15.80;43.70
21807;DHT22;11065;50.786;7.840;2024-03-23T14:43:27;16.00;43.80
21807;DHT22;11065;50.786;7.840;2024-03-23T14:46:06;16.30;43.50
21807;DHT22;11065;50.786;7.840;2024-03-23T14:48:34;16.40;43.00
21807;DHT22;11065;50.786;7.840;2024-03-23T14:51:01;16.60;42.80
21807;DHT22;11065;50.786;7.840;2024-03-23T14:53:31;16.60;42.60
21807;DHT22;11065;50.786;7.840;2024-03-23T14:55:57;16.60;42.20
21807;DHT22;11065;50.786;7.840;2024-03-23T14:58:26;16.50;41.80
21807;DHT22;11065;50.786;7.840;2024-03-23T15:00:52;16.40;41.40
21807;DHT22;11065;50.786;7.840;2024-03-23T15:03:19;16.20;40.60
21807;DHT22;11065;50.786;7.840;2024-03-23T15:05:52;15.90;40.80
21807;DHT22;11065;50.786;7.840;2024-03-23T15:08:19;15.60;40.60
21807;DHT22;11065;50.786;7.840;2024-03-23T15:10:47;15.40;40.70
21807;DHT22;11065;50.786;7.840;2024-03-23T15:13:14;15.20;40.90
21807;DHT22;11065;50.786;7.840;2024-03-23T15:15:40;15.00;41.10
21807;DHT22;11065;50.786;7.840;2024-03-23T15:18:10;14.80;41.20
21807;DHT22;11065;50.786;7.840;2024-03-23T15:20:36;14.60;40.90
21807;DHT22;11065;50.786;7.840;2024-03-23T15:23:03;14.30;41.20
21807;DHT22;11065;50.786;7.840;2024-03-23T15:25:29;14.10;41.20
21807;DHT22;11065;50.786;7.840;2024-03-23T15:27:58;13.80;41.20
21807;DHT22;11065;50.786;7.840;2024-03-23T15:30:25;13.60;41.60
21807;DHT22;11065;50.786;7.840;2024-03-23T15:32:52;13.20;41.70
21807;DHT22;11065;50.786;7.840;2024-03-23T15:35:18;13.00;41.80
21807;DHT22;11065;50.786;7.840;2024-03-23T15:37:47;12.80;42.00
21807;DHT22;11065;50.786;7.840;2024-03-23T15:40:13;12.60;42.00
21807;DHT22;11065;50.786;7.840;2024-03-23T15:42:40;12.40;42.00
21807;DHT22;11065;50.786;7.840;2024-03-23T15:45:08;12.20;42.10
21807;DHT22;11065;50.786;7.840;2024-03-23T15:47:35;12.10;42.20
21807;DHT22;11065;50.786;7.840;2024-03-23T15:50:02;11.90;42.30
21807;DHT22;11065;50.786;7.840;2024-03-23T15:52:34;11.70;42.50
21807;DHT22;11065;50.786;7.840;2024-03-23T15:55:01;11.60;42.80
21807;DHT22;11065;50.786;7.840;2024-03-23T15:57:32;11.40;43.00
21807;DHT22;11065;50.786;7.840;2024-03-23T15:59:58;11.30;43.60
21807;DHT22;11065;50.786;7.840;2024-03-23T16:02:27;11.20;43.30
21807;DHT22;11065;50.786;7.840;2024-03-23T16:04:53;11.00;43.50
21807;DHT22;11065;50.786;7.840;2024-03-23T16:07:21;10.90;43.50
21807;DHT22;11065;50.786;7.840;2024-03-23T16:09:47;10.80;43.90
21807;DHT22;11065;50.786;7.840;2024-03-23T16:12:14;10.70;43.70
21807;DHT22;11065;50.786;7.840;2024-03-23T16:14:40;10.60;43.70
21807;DHT22;11065;50.786;7.840;2024-03-23T16:17:07;10.50;44.00
21807;DHT22;11065;50.786;7.840;2024-03-23T16:19:34;10.40;44.00
21807;DHT22;11065;50.786;7.840;2024-03-23T16:22:01;10.40;44.10
21807;DHT22;11065;50.786;7.840;2024-03-23T16:24:27;10.30;44.40
21807;DHT22;11065;50.786;7.840;2024-03-23T16:26:54;10.20;44.40
21807;DHT22;11065;50.786;7.840;2024-03-23T16:29:20;10.10;44.30